sensor_id;sensor_type;location;lat;lon;timestamp;pressure;altitude;pressure_sealevel;temperature;humidity
20455;BME280;10386;54.314;10.022;2024-03-23T00:53:52;100830.47;;;5.84;100.00
20455;BME280;10386;54.314;10.022;2024-03-23T00:56:18;100832.13;;;5.86;100.00
20455;BME280;10386;54.314;10.022;2024-03-23T00:58:44;100828.09;;;5.78;100.00
20455;BME280;10386;54.314;10.022;2024-03-23T01:01:10;100830.72;;;5.79;100.00
20455;BME280;10386;54.314;10.022;2024-03-23T01:03:36;100817.16;;;5.81;100.00
20455;BME280;10386;54.314;10.022;2024-03-23T01:06:02;100814.56;;;5.79;100.00
20455;BME280;10386;54.314;10.022;2024-03-23T01:08:31;100808.84;;;5.85;100.00
20455;BME280;10386;54.314;10.022;2024-03-23T01:10:59;100800.75;;;5.85;100.00
20455;BME280;10386;54.314;10.022;2024-03-23T01:13:26;100808.41;;;5.76;100.00
20455;BME280;10386;54.314;10.022;2024-03-23T01:15:53;100798.59;;;5.75;100.00
20455;BME280;10386;54.314;10.022;2024-03-23T01:18:20;100799.63;;;5.72;100.00
20455;BME280;10386;54.314;10.022;2024-03-23T01:20:46;100798.59;;;5.75;100.00
20455;BME280;10386;54.314;10.022;2024-03-23T01:23:12;100792.56;;;5.70;100.00
20455;BME280;10386;54.314;10.022;2024-03-23T01:25:38;100786.06;;;5.74;100.00
20455;BME280;10386;54.314;10.022;2024-03-23T01:28:05;100779.25;;;5.67;100.00
20455;BME280;10386;54.314;10.022;2024-03-23T01:30:33;100783.84;;;5.65;100.00
20455;BME280;10386;54.314;10.022;2024-03-23T01:32:59;100787.66;;;5.61;100.00
20455;BME280;10386;54.314;10.022;2024-03-23T01:35:25;100776.56;;;5.67;100.00
20455;BME280;10386;54.314;10.022;2024-03-23T01:37:51;100775.16;;;5.60;100.00
20455;BME280;10386;54.314;10.022;2024-03-23T01:40:16;100775.31;;;5.57;100.00
20455;BME280;10386;54.314;10.022;2024-03-23T01:42:42;100772.03;;;5.50;100.00
20455;BME280;10386;54.314;10.022;2024-03-23T01:45:09;100778.78;;;5.59;100.00
20455;BME280;10386;54.314;10.022;2024-03-23T01:47:38;100771.81;;;5.55;100.00
20455;BME280;10386;54.314;10.022;2024-03-23T01:50:04;100766.75;;;5.49;100.00
20455;BME280;10386;54.314;10.022;2024-03-23T01:52:30;100758.59;;;5.50;100.00
20455;BME280;10386;54.314;10.022;2024-03-23T01:54:56;100766.97;;;5.44;100.00
20455;BME280;10386;54.314;10.022;2024-03-23T01:57:22;100766.13;;;5.44;100.00
20455;BME280;10386;54.314;10.022;2024-03-23T01:59:48;100756.69;;;5.36;100.00
20455;BME280;10386;54.314;10.022;2024-03-23T02:02:14;100743.53;;;5.46;100.00
20455;BME280;10386;54.314;10.022;2024-03-23T02:04:43;100749.56;;;5.51;100.00
20455;BME280;10386;54.314;10.022;2024-03-23T02:07:09;100750.03;;;5.42;100.00
20455;BME280;10386;54.314;10.022;2024-03-23T02:09:35;100749.56;;;5.35;100.00
20455;BME280;10386;54.314;10.022;2024-03-23T02:12:04;100745.38;;;5.29;100.00
20455;BME280;10386;54.314;10.022;2024-03-23T02:14:30;100734.53;;;5.31;100.00
20455;BME280;10386;54.314;10.022;2024-03-23T02:16:56;100732.78;;;5.30;100.00
20455;BME280;10386;54.314;10.022;2024-03-23T02:19:22;100720.44;;;5.26;100.00
20455;BME280;10386;54.314;10.022;2024-03-23T02:21:47;100715.00;;;5.27;100.00
20455;BME280;10386;54.314;10.022;2024-03-23T02:24:13;100706.28;;;5.22;100.00
20455;BME280;10386;54.314;10.022;2024-03-23T02:26:39;100710.41;;;5.12;100.00
20455;BME280;10386;54.314;10.022;2024-03-23T02:29:05;100717.91;;;5.06;100.00
20455;BME280;10386;54.314;10.022;2024-03-23T02:31:30;100713.53;;;5.03;100.00
20455;BME280;10386;54.314;10.022;2024-03-23T02:33:56;100700.00;;;5.22;100.00
20455;BME280;10386;54.314;10.022;2024-03-23T02:36:22;100701.44;;;5.12;100.00
20455;BME280;10386;54.314;10.022;2024-03-23T02:38:51;100700.88;;;5.05;100.00
20455;BME280;10386;54.314;10.022;2024-03-23T02:41:16;100697.16;;;5.08;100.00
20455;BME280;10386;54.314;10.022;2024-03-23T02:43:51;100690.03;;;5.07;100.00
20455;BME280;10386;54.314;10.022;2024-03-23T02:46:17;100685.63;;;5.06;100.00
20455;BME280;10386;54.314;10.022;2024-03-23T02:48:43;100686.41;;;5.08;100.00
20455;BME280;10386;54.314;10.022;2024-03-23T02:51:09;100684.19;;;5.16;100.00
20455;BME280;10386;54.314;10.022;2024-03-23T02:53:35;100673.44;;;5.16;100.00
20455;BME280;10386;54.314;10.022;2024-03-23T02:56:01;100659.81;;;5.19;100.00
20455;BME280;10386;54.314;10.022;2024-03-23T02:58:27;100659.75;;;5.20;100.00
20455;BME280;10386;54.314;10.022;2024-03-23T03:00:52;100655.38;;;5.18;100.00
20455;BME280;10386;54.314;10.022;2024-03-23T03:03:18;100650.09;;;5.16;100.00
20455;BME280;10386;54.314;10.022;2024-03-23T03:05:44;100637.91;;;5.26;100.00
20455;BME280;10386;54.314;10.022;2024-03-23T03:08:10;100634.81;;;5.17;100.00
20455;BME280;10386;54.314;10.022;2024-03-23T03:10:35;100636.81;;;5.13;100.00
20455;BME280;10386;54.314;10.022;2024-03-23T03:13:02;100627.13;;;5.26;100.00
20455;BME280;10386;54.314;10.022;2024-03-23T03:15:28;100631.44;;;5.13;100.00
20455;BME280;10386;54.314;10.022;2024-03-23T03:17:54;100629.53;;;5.15;100.00
20455;BME280;10386;54.314;10.022;2024-03-23T03:20:20;100610.38;;;5.21;100.00
20455;BME280;10386;54.314;10.022;2024-03-23T03:22:49;100621.34;;;5.17;100.00
20455;BME280;10386;54.314;10.022;2024-03-23T03:25:15;100615.75;;;5.21;100.00
20455;BME280;10386;54.314;10.022;2024-03-23T03:27:40;100616.94;;;5.16;100.00
20455;BME280;10386;54.314;10.022;2024-03-23T03:30:06;100609.75;;;5.16;100.00
20455;BME280;10386;54.314;10.022;2024-03-23T03:32:34;100611.06;;;5.08;100.00
20455;BME280;10386;54.314;10.022;2024-03-23T03:35:00;100596.91;;;5.04;100.00
20455;BME280;10386;54.314;10.022;2024-03-23T03:37:26;100598.47;;;5.08;100.00
20455;BME280;10386;54.314;10.022;2024-03-23T03:39:52;100590.13;;;5.14;100.00
20455;BME280;10386;54.314;10.022;2024-03-23T03:42:18;100585.28;;;5.04;100.00
20455;BME280;10386;54.314;10.022;2024-03-23T03:44:43;100593.75;;;4.96;100.00
20455;BME280;10386;54.314;10.022;2024-03-23T03:47:09;100575.53;;;5.01;100.00
20455;BME280;10386;54.314;10.022;2024-03-23T03:49:35;100577.06;;;5.07;100.00
20455;BME280;10386;54.314;10.022;2024-03-23T03:52:01;100573.47;;;5.06;100.00
20455;BME280;10386;54.314;10.022;2024-03-23T03:54:27;100573.13;;;4.97;100.00
20455;BME280;10386;54.314;10.022;2024-03-23T03:56:53;100568.44;;;5.00;100.00
20455;BME280;10386;54.314;10.022;2024-03-23T03:59:19;100567.13;;;4.92;100.00
20455;BME280;10386;54.314;10.022;2024-03-23T04:01:46;100561.72;;;4.92;100.00
20455;BME280;10386;54.314;10.022;2024-03-23T04:04:11;100564.25;;;4.95;100.00
20455;BME280;10386;54.314;10.022;2024-03-23T04:06:37;100555.56;;;4.90;100.00
20455;BME280;10386;54.314;10.022;2024-03-23T04:09:03;100548.78;;;4.83;100.00
20455;BME280;10386;54.314;10.022;2024-03-23T04:11:29;100553.09;;;4.85;100.00
20455;BME280;10386;54.314;10.022;2024-03-23T04:13:55;100542.34;;;4.85;100.00
20455;BME280;10386;54.314;10.022;2024-03-23T04:16:33;100526.44;;;4.98;100.00
20455;BME280;10386;54.314;10.022;2024-03-23T04:19:00;100527.06;;;5.03;100.00
20455;BME280;10386;54.314;10.022;2024-03-23T04:21:26;100525.72;;;4.94;100.00
20455;BME280;10386;54.314;10.022;2024-03-23T04:23:52;100517.81;;;4.91;100.00
20455;BME280;10386;54.314;10.022;2024-03-23T04:26:18;100518.06;;;4.87;100.00
20455;BME280;10386;54.314;10.022;2024-03-23T04:28:44;100525.69;;;4.79;100.00
20455;BME280;10386;54.314;10.022;2024-03-23T04:31:09;100525.44;;;4.66;100.00
20455;BME280;10386;54.314;10.022;2024-03-23T04:33:35;100522.81;;;4.65;100.00
20455;BME280;10386;54.314;10.022;2024-03-23T04:36:01;100508.50;;;4.81;100.00
20455;BME280;10386;54.314;10.022;2024-03-23T04:38:28;100512.72;;;4.70;100.00
20455;BME280;10386;54.314;10.022;2024-03-23T04:40:56;100512.47;;;4.74;100.00
20455;BME280;10386;54.314;10.022;2024-03-23T04:43:22;100503.56;;;4.74;100.00
20455;BME280;10386;54.314;10.022;2024-03-23T04:45:49;100489.59;;;4.66;100.00
20455;BME280;10386;54.314;10.022;2024-03-23T04:48:15;100484.97;;;4.69;100.00
20455;BME280;10386;54.314;10.022;2024-03-23T04:50:41;100476.22;;;4.81;100.00
20455;BME280;10386;54.314;10.022;2024-03-23T04:53:07;100459.88;;;4.86;100.00
20455;BME280;10386;54.314;10.022;2024-03-23T04:55:33;100449.59;;;4.77;100.00
20455;BME280;10386;54.314;10.022;2024-03-23T04:57:59;100448.81;;;4.75;100.00
20455;BME280;10386;54.314;10.022;2024-03-23T05:00:25;100456.03;;;4.57;100.00
20455;BME280;10386;54.314;10.022;2024-03-23T05:02:51;100449.78;;;4.57;100.00
20455;BME280;10386;54.314;10.022;2024-03-23T05:05:19;100449.78;;;4.57;100.00
20455;BME280;10386;54.314;10.022;2024-03-23T05:07:44;100435.22;;;4.61;100.00
20455;BME280;10386;54.314;10.022;2024-03-23T05:10:10;100439.25;;;4.69;100.00
20455;BME280;10386;54.314;10.022;2024-03-23T05:12:39;100422.84;;;4.91;100.00
20455;BME280;10386;54.314;10.022;2024-03-23T05:15:05;100419.72;;;4.98;100.00
20455;BME280;10386;54.314;10.022;2024-03-23T05:17:32;100405.75;;;5.07;100.00
20455;BME280;10386;54.314;10.022;2024-03-23T05:19:58;100401.97;;;5.11;100.00
20455;BME280;10386;54.314;10.022;2024-03-23T05:22:24;100414.59;;;5.09;100.00
20455;BME280;10386;54.314;10.022;2024-03-23T05:24:50;100404.47;;;5.14;100.00
20455;BME280;10386;54.314;10.022;2024-03-23T05:27:15;100391.28;;;5.25;100.00
20455;BME280;10386;54.314;10.022;2024-03-23T05:29:41;100389.28;;;5.29;100.00
20455;BME280;10386;54.314;10.022;2024-03-23T05:32:07;100386.94;;;5.23;100.00
20455;BME280;10386;54.314;10.022;2024-03-23T05:34:33;100383.13;;;5.27;100.00
20455;BME280;10386;54.314;10.022;2024-03-23T05:36:59;100382.59;;;5.36;100.00
20455;BME280;10386;54.314;10.022;2024-03-23T05:39:25;100367.63;;;5.45;100.00
20455;BME280;10386;54.314;10.022;2024-03-23T05:41:51;100366.00;;;5.43;100.00
20455;BME280;10386;54.314;10.022;2024-03-23T05:44:17;100361.66;;;5.56;100.00
20455;BME280;10386;54.314;10.022;2024-03-23T05:46:43;100364.09;;;5.45;100.00
20455;BME280;10386;54.314;10.022;2024-03-23T05:49:15;100359.31;;;5.35;100.00
20455;BME280;10386;54.314;10.022;2024-03-23T05:51:41;100359.69;;;5.29;100.00
20455;BME280;10386;54.314;10.022;2024-03-23T05:54:07;100355.84;;;5.33;100.00
20455;BME280;10386;54.314;10.022;2024-03-23T05:56:32;100347.59;;;5.36;100.00
20455;BME280;10386;54.314;10.022;2024-03-23T05:58:58;100346.94;;;5.32;100.00
20455;BME280;10386;54.314;10.022;2024-03-23T06:01:24;100337.00;;;5.33;100.00
20455;BME280;10386;54.314;10.022;2024-03-23T06:03:50;100327.13;;;5.33;100.00
20455;BME280;10386;54.314;10.022;2024-03-23T06:06:16;100326.84;;;5.38;100.00
20455;BME280;10386;54.314;10.022;2024-03-23T06:08:42;100323.91;;;5.42;100.00
20455;BME280;10386;54.314;10.022;2024-03-23T06:11:08;100311.16;;;5.30;100.00
20455;BME280;10386;54.314;10.022;2024-03-23T06:13:33;100311.13;;;5.45;100.00
20455;BME280;10386;54.314;10.022;2024-03-23T06:16:01;100305.25;;;5.39;100.00
20455;BME280;10386;54.314;10.022;2024-03-23T06:18:27;100307.22;;;5.36;100.00
20455;BME280;10386;54.314;10.022;2024-03-23T06:20:53;100303.03;;;5.45;100.00
20455;BME280;10386;54.314;10.022;2024-03-23T06:23:20;100301.22;;;5.46;100.00
20455;BME280;10386;54.314;10.022;2024-03-23T06:25:46;100294.31;;;5.71;100.00
20455;BME280;10386;54.314;10.022;2024-03-23T06:28:12;100291.03;;;5.66;100.00
20455;BME280;10386;54.314;10.022;2024-03-23T06:30:38;100290.50;;;5.60;100.00
20455;BME280;10386;54.314;10.022;2024-03-23T06:33:04;100288.41;;;5.65;100.00
20455;BME280;10386;54.314;10.022;2024-03-23T06:35:31;100284.56;;;5.69;100.00
20455;BME280;10386;54.314;10.022;2024-03-23T06:37:57;100276.91;;;6.06;100.00
20455;BME280;10386;54.314;10.022;2024-03-23T06:40:23;100261.50;;;6.64;100.00
20455;BME280;10386;54.314;10.022;2024-03-23T06:42:49;100249.97;;;7.41;100.00
20455;BME280;10386;54.314;10.022;2024-03-23T06:45:16;100266.94;;;7.43;100.00
20455;BME280;10386;54.314;10.022;2024-03-23T06:47:43;100261.94;;;7.25;100.00
20455;BME280;10386;54.314;10.022;2024-03-23T06:50:09;100257.03;;;7.17;100.00
20455;BME280;10386;54.314;10.022;2024-03-23T06:52:36;100271.22;;;6.53;100.00
20455;BME280;10386;54.314;10.022;2024-03-23T06:55:01;100279.31;;;6.39;100.00
20455;BME280;10386;54.314;10.022;2024-03-23T06:57:30;100282.50;;;6.45;100.00
20455;BME280;10386;54.314;10.022;2024-03-23T06:59:55;100276.41;;;6.56;100.00
20455;BME280;10386;54.314;10.022;2024-03-23T07:02:21;100271.78;;;6.58;100.00
20455;BME280;10386;54.314;10.022;2024-03-23T07:04:47;100268.78;;;6.76;100.00
20455;BME280;10386;54.314;10.022;2024-03-23T07:07:13;100282.47;;;6.73;100.00
20455;BME280;10386;54.314;10.022;2024-03-23T07:09:38;100286.72;;;6.63;100.00
20455;BME280;10386;54.314;10.022;2024-03-23T07:12:04;100296.19;;;6.56;100.00
20455;BME280;10386;54.314;10.022;2024-03-23T07:14:30;100289.91;;;6.56;100.00
20455;BME280;10386;54.314;10.022;2024-03-23T07:16:56;100299.44;;;6.61;100.00
20455;BME280;10386;54.314;10.022;2024-03-23T07:19:22;100300.41;;;6.60;100.00
20455;BME280;10386;54.314;10.022;2024-03-23T07:21:50;100290.44;;;6.75;100.00
20455;BME280;10386;54.314;10.022;2024-03-23T07:24:16;100288.63;;;6.75;100.00
20455;BME280;10386;54.314;10.022;2024-03-23T07:26:42;100291.41;;;6.74;100.00
20455;BME280;10386;54.314;10.022;2024-03-23T07:29:08;100289.59;;;6.74;100.00
20455;BME280;10386;54.314;10.022;2024-03-23T07:31:34;100277.91;;;7.01;100.00
20455;BME280;10386;54.314;10.022;2024-03-23T07:33:59;100272.09;;;7.34;100.00
20455;BME280;10386;54.314;10.022;2024-03-23T07:36:25;100271.28;;;7.58;100.00
20455;BME280;10386;54.314;10.022;2024-03-23T07:38:51;100265.13;;;7.56;100.00
20455;BME280;10386;54.314;10.022;2024-03-23T07:41:19;100275.09;;;7.56;100.00
20455;BME280;10386;54.314;10.022;2024-03-23T07:43:46;100273.22;;;7.44;100.00
20455;BME280;10386;54.314;10.022;2024-03-23T07:46:12;100278.88;;;7.66;100.00
20455;BME280;10386;54.314;10.022;2024-03-23T07:48:39;100278.97;;;7.64;100.00
20455;BME280;10386;54.314;10.022;2024-03-23T07:51:09;100277.19;;;7.77;100.00
20455;BME280;10386;54.314;10.022;2024-03-23T07:53:35;100285.22;;;7.52;100.00
20455;BME280;10386;54.314;10.022;2024-03-23T07:56:07;100286.66;;;7.31;100.00
20455;BME280;10386;54.314;10.022;2024-03-23T07:58:34;100286.25;;;7.37;100.00
20455;BME280;10386;54.314;10.022;2024-03-23T08:01:07;100287.75;;;7.29;100.00
20455;BME280;10386;54.314;10.022;2024-03-23T08:03:36;100280.16;;;7.21;100.00
20455;BME280;10386;54.314;10.022;2024-03-23T08:06:15;100274.44;;;7.26;100.00
20455;BME280;10386;54.314;10.022;2024-03-23T08:08:43;100279.78;;;7.40;100.00
20455;BME280;10386;54.314;10.022;2024-03-23T08:11:10;100279.81;;;7.52;100.00
20455;BME280;10386;54.314;10.022;2024-03-23T08:13:39;100277.09;;;8.04;100.00
20455;BME280;10386;54.314;10.022;2024-03-23T08:16:05;100268.72;;;8.33;100.00
20455;BME280;10386;54.314;10.022;2024-03-23T08:18:32;100272.84;;;8.26;100.00
20455;BME280;10386;54.314;10.022;2024-03-23T08:20:58;100277.97;;;8.04;100.00
20455;BME280;10386;54.314;10.022;2024-03-23T08:23:26;100279.94;;;8.02;100.00
20455;BME280;10386;54.314;10.022;2024-03-23T08:25:52;100289.44;;;7.95;100.00
20455;BME280;10386;54.314;10.022;2024-03-23T08:28:22;100283.53;;;8.40;100.00
20455;BME280;10386;54.314;10.022;2024-03-23T08:30:48;100277.47;;;8.74;100.00
20455;BME280;10386;54.314;10.022;2024-03-23T08:33:15;100268.03;;;9.39;100.00
20455;BME280;10386;54.314;10.022;2024-03-23T08:35:41;100275.28;;;9.61;100.00
20455;BME280;10386;54.314;10.022;2024-03-23T08:38:07;100277.97;;;9.85;100.00
20455;BME280;10386;54.314;10.022;2024-03-23T08:40:33;100293.38;;;9.84;100.00
20455;BME280;10386;54.314;10.022;2024-03-23T08:42:59;100297.38;;;10.37;100.00
20455;BME280;10386;54.314;10.022;2024-03-23T08:45:25;100309.03;;;10.15;100.00
20455;BME280;10386;54.314;10.022;2024-03-23T08:47:51;100323.22;;;9.95;100.00
20455;BME280;10386;54.314;10.022;2024-03-23T08:50:17;100332.13;;;9.97;100.00
20455;BME280;10386;54.314;10.022;2024-03-23T08:52:44;100345.00;;;9.83;100.00
20455;BME280;10386;54.314;10.022;2024-03-23T08:55:10;100354.03;;;9.94;100.00
20455;BME280;10386;54.314;10.022;2024-03-23T08:57:36;100377.94;;;10.13;100.00
20455;BME280;10386;54.314;10.022;2024-03-23T09:00:02;100390.06;;;10.54;100.00
20455;BME280;10386;54.314;10.022;2024-03-23T09:02:28;100398.63;;;10.94;100.00
20455;BME280;10386;54.314;10.022;2024-03-23T09:04:54;100422.88;;;10.62;100.00
20455;BME280;10386;54.314;10.022;2024-03-23T09:07:20;100454.94;;;10.23;100.00
20455;BME280;10386;54.314;10.022;2024-03-23T09:09:45;100478.50;;;9.74;100.00
20455;BME280;10386;54.314;10.022;2024-03-23T09:12:11;100514.22;;;9.31;100.00
20455;BME280;10386;54.314;10.022;2024-03-23T09:14:37;100535.88;;;8.28;100.00
20455;BME280;10386;54.314;10.022;2024-03-23T09:17:03;100548.72;;;7.56;100.00
20455;BME280;10386;54.314;10.022;2024-03-23T09:19:29;100552.03;;;7.33;100.00
20455;BME280;10386;54.314;10.022;2024-03-23T09:21:55;100559.53;;;7.28;100.00
20455;BME280;10386;54.314;10.022;2024-03-23T09:24:22;100560.94;;;6.92;100.00
20455;BME280;10386;54.314;10.022;2024-03-23T09:26:48;100555.56;;;6.77;100.00
20455;BME280;10386;54.314;10.022;2024-03-23T09:29:13;100576.34;;;6.61;100.00
20455;BME280;10386;54.314;10.022;2024-03-23T09:31:40;100591.31;;;6.51;100.00
20455;BME280;10386;54.314;10.022;2024-03-23T09:34:06;100587.59;;;6.22;100.00
20455;BME280;10386;54.314;10.022;2024-03-23T09:36:32;100588.66;;;6.20;100.00
20455;BME280;10386;54.314;10.022;2024-03-23T09:38:58;100567.25;;;6.32;100.00
20455;BME280;10386;54.314;10.022;2024-03-23T09:41:24;100563.25;;;6.39;100.00
20455;BME280;10386;54.314;10.022;2024-03-23T09:43:52;100552.25;;;6.58;100.00
20455;BME280;10386;54.314;10.022;2024-03-23T09:46:19;100546.63;;;6.76;100.00
20455;BME280;10386;54.314;10.022;2024-03-23T09:48:46;100541.75;;;6.82;100.00
20455;BME280;10386;54.314;10.022;2024-03-23T09:51:12;100541.19;;;6.91;100.00
20455;BME280;10386;54.314;10.022;2024-03-23T09:53:38;100534.66;;;7.79;100.00
20455;BME280;10386;54.314;10.022;2024-03-23T09:56:04;100522.56;;;8.51;100.00
20455;BME280;10386;54.314;10.022;2024-03-23T09:58:30;100522.69;;;8.62;100.00
20455;BME280;10386;54.314;10.022;2024-03-23T10:00:58;100517.91;;;9.05;100.00
20455;BME280;10386;54.314;10.022;2024-03-23T10:03:24;100529.47;;;8.82;100.00
20455;BME280;10386;54.314;10.022;2024-03-23T10:06:03;100553.66;;;8.32;100.00
20455;BME280;10386;54.314;10.022;2024-03-23T10:08:29;100563.63;;;8.04;100.00
20455;BME280;10386;54.314;10.022;2024-03-23T10:10:56;100587.31;;;7.58;100.00
20455;BME280;10386;54.314;10.022;2024-03-23T10:13:26;100591.91;;;7.14;100.00
20455;BME280;10386;54.314;10.022;2024-03-23T10:15:56;100566.47;;;7.04;100.00
20455;BME280;10386;54.314;10.022;2024-03-23T10:18:24;100565.31;;;7.08;100.00
20455;BME280;10386;54.314;10.022;2024-03-23T10:23:32;100551.13;;;7.19;100.00
20455;BME280;10386;54.314;10.022;2024-03-23T10:28:55;100550.72;;;6.97;100.00
20455;BME280;10386;54.314;10.022;2024-03-23T10:31:27;100544.34;;;6.98;100.00
20455;BME280;10386;54.314;10.022;2024-03-23T10:33:53;100536.06;;;7.01;100.00
20455;BME280;10386;54.314;10.022;2024-03-23T10:36:21;100535.34;;;7.27;100.00
20455;BME280;10386;54.314;10.022;2024-03-23T10:38:49;100513.81;;;8.08;100.00
20455;BME280;10386;54.314;10.022;2024-03-23T10:41:15;100506.50;;;8.36;100.00
20455;BME280;10386;54.314;10.022;2024-03-23T10:43:42;100500.13;;;9.01;100.00
20455;BME280;10386;54.314;10.022;2024-03-23T10:46:09;100494.00;;;9.11;100.00
20455;BME280;10386;54.314;10.022;2024-03-23T10:48:34;100494.03;;;8.60;100.00
20455;BME280;10386;54.314;10.022;2024-03-23T10:51:01;100491.41;;;8.58;100.00
20455;BME280;10386;54.314;10.022;2024-03-23T10:53:28;100491.16;;;8.49;100.00
20455;BME280;10386;54.314;10.022;2024-03-23T10:55:55;100493.44;;;8.42;100.00
20455;BME280;10386;54.314;10.022;2024-03-23T10:58:26;100508.78;;;8.42;100.00
20455;BME280;10386;54.314;10.022;2024-03-23T11:00:53;100508.59;;;9.09;100.00
20455;BME280;10386;54.314;10.022;2024-03-23T11:05:59;100525.16;;;9.54;100.00
20455;BME280;10386;54.314;10.022;2024-03-23T11:08:36;100548.75;;;9.89;100.00
20455;BME280;10386;54.314;10.022;2024-03-23T11:11:13;100548.91;;;10.11;100.00
20455;BME280;10386;54.314;10.022;2024-03-23T11:13:39;100570.44;;;9.77;100.00
20455;BME280;10386;54.314;10.022;2024-03-23T11:16:21;100583.03;;;9.65;100.00
20455;BME280;10386;54.314;10.022;2024-03-23T11:18:47;100593.88;;;9.65;100.00
20455;BME280;10386;54.314;10.022;2024-03-23T11:21:52;100611.97;;;9.40;100.00
20455;BME280;10386;54.314;10.022;2024-03-23T11:24:19;100604.81;;;10.14;100.00
20455;BME280;10386;54.314;10.022;2024-03-23T11:26:45;100627.06;;;10.06;100.00
20455;BME280;10386;54.314;10.022;2024-03-23T11:29:12;100630.41;;;9.97;100.00
20455;BME280;10386;54.314;10.022;2024-03-23T11:31:48;100655.50;;;9.25;100.00
20455;BME280;10386;54.314;10.022;2024-03-23T11:34:15;100676.63;;;8.13;100.00
20455;BME280;10386;54.314;10.022;2024-03-23T11:36:42;100688.66;;;7.79;100.00
20455;BME280;10386;54.314;10.022;2024-03-23T11:41:59;100707.56;;;7.06;100.00
20455;BME280;10386;54.314;10.022;2024-03-23T11:44:26;100709.75;;;7.00;100.00
20455;BME280;10386;54.314;10.022;2024-03-23T11:46:53;100702.91;;;6.94;100.00
20455;BME280;10386;54.314;10.022;2024-03-23T11:49:26;100681.44;;;7.36;100.00
20455;BME280;10386;54.314;10.022;2024-03-23T11:51:54;100657.97;;;8.08;100.00
20455;BME280;10386;54.314;10.022;2024-03-23T11:54:20;100650.31;;;8.42;100.00
20455;BME280;10386;54.314;10.022;2024-03-23T11:57:13;100641.25;;;8.70;100.00
20455;BME280;10386;54.314;10.022;2024-03-23T11:59:41;100635.31;;;8.77;100.00
20455;BME280;10386;54.314;10.022;2024-03-23T12:02:08;100631.25;;;9.23;100.00
20455;BME280;10386;54.314;10.022;2024-03-23T12:04:35;100623.91;;;9.38;100.00
20455;BME280;10386;54.314;10.022;2024-03-23T12:07:18;100616.00;;;9.59;100.00
20455;BME280;10386;54.314;10.022;2024-03-23T12:09:45;100611.72;;;9.31;100.00
20455;BME280;10386;54.314;10.022;2024-03-23T12:12:18;100607.66;;;9.62;100.00
20455;BME280;10386;54.314;10.022;2024-03-23T12:14:45;100597.78;;;9.61;100.00
20455;BME280;10386;54.314;10.022;2024-03-23T12:17:15;100607.63;;;9.75;100.00
20455;BME280;10386;54.314;10.022;2024-03-23T12:19:43;100621.94;;;9.27;100.00
20455;BME280;10386;54.314;10.022;2024-03-23T12:22:10;100643.00;;;8.97;100.00
20455;BME280;10386;54.314;10.022;2024-03-23T12:24:36;100688.03;;;7.46;100.00
20455;BME280;10386;54.314;10.022;2024-03-23T12:27:03;100699.00;;;6.54;100.00
20455;BME280;10386;54.314;10.022;2024-03-23T12:29:31;100676.97;;;6.77;100.00
20455;BME280;10386;54.314;10.022;2024-03-23T12:32:01;100664.34;;;7.65;100.00
20455;BME280;10386;54.314;10.022;2024-03-23T12:34:27;100656.81;;;8.12;100.00
20455;BME280;10386;54.314;10.022;2024-03-23T12:36:54;100640.16;;;8.46;100.00
20455;BME280;10386;54.314;10.022;2024-03-23T12:39:20;100631.63;;;8.66;100.00
20455;BME280;10386;54.314;10.022;2024-03-23T12:41:49;100630.88;;;8.76;100.00
20455;BME280;10386;54.314;10.022;2024-03-23T12:44:15;100622.09;;;8.99;100.00
20455;BME280;10386;54.314;10.022;2024-03-23T12:46:41;100617.19;;;9.56;100.00
20455;BME280;10386;54.314;10.022;2024-03-23T12:49:08;100607.97;;;9.70;100.00
20455;BME280;10386;54.314;10.022;2024-03-23T12:51:34;100616.06;;;9.95;100.00
20455;BME280;10386;54.314;10.022;2024-03-23T12:54:00;100611.97;;;10.02;100.00
20455;BME280;10386;54.314;10.022;2024-03-23T12:56:26;100611.50;;;10.33;100.00
20455;BME280;10386;54.314;10.022;2024-03-23T12:58:54;100605.56;;;10.52;100.00
20455;BME280;10386;54.314;10.022;2024-03-23T13:01:25;100595.22;;;11.03;100.00
20455;BME280;10386;54.314;10.022;2024-03-23T13:03:51;100600.75;;;11.02;100.00
20455;BME280;10386;54.314;10.022;2024-03-23T13:06:18;100600.09;;;11.22;100.00
20455;BME280;10386;54.314;10.022;2024-03-23T13:08:47;100611.13;;;10.74;100.00
20455;BME280;10386;54.314;10.022;2024-03-23T13:11:15;100605.09;;;10.81;100.00
20455;BME280;10386;54.314;10.022;2024-03-23T13:13:41;100615.19;;;10.32;100.00
20455;BME280;10386;54.314;10.022;2024-03-23T13:16:07;100624.09;;;10.34;100.00
20455;BME280;10386;54.314;10.022;2024-03-23T13:18:33;100627.28;;;10.03;100.00
20455;BME280;10386;54.314;10.022;2024-03-23T13:20:59;100613.28;;;9.59;100.00
20455;BME280;10386;54.314;10.022;2024-03-23T13:23:25;100632.16;;;10.11;100.00
20455;BME280;10386;54.314;10.022;2024-03-23T13:25:55;100628.25;;;10.15;100.00
20455;BME280;10386;54.314;10.022;2024-03-23T13:28:22;100627.38;;;9.89;100.00
20455;BME280;10386;54.314;10.022;2024-03-23T13:30:55;100628.88;;;9.93;100.00
20455;BME280;10386;54.314;10.022;2024-03-23T13:33:22;100627.59;;;9.61;100.00
20455;BME280;10386;54.314;10.022;2024-03-23T13:35:54;100625.19;;;9.57;100.00
20455;BME280;10386;54.314;10.022;2024-03-23T13:38:24;100636.16;;;9.43;100.00
20455;BME280;10386;54.314;10.022;2024-03-23T13:40:56;100641.53;;;9.31;100.00
20455;BME280;10386;54.314;10.022;2024-03-23T13:43:24;100647.53;;;9.48;100.00